バクー の空港の天気 - METARとTAF

ヘイダル・アリエフ国際空港(バクー) ( UBBB / BAK ) - アゼルバイジャン バクー
飛行場実況気象(Metar)
観測時間10/22 15:30 AZT (10/22 11:30 UTC)
風向・風速南 7m/s
視程10km以上
天気現象
全天の8割程度の雲 雲底高度 1370m
気温20℃
湿度68%
気圧1022hPa
METARUBBB 221130Z 17014KT 9999 BKN045 20/14 Q1022 R88/D NOSIG
過去の天気等 Google飛行場航空写真 Wunderground天気予報

過去48時間のMETAR

飛行場予報(TAF)
発表時間: 10/22 15:09 AZT (10/22 11:09 UTC)
予報対象時間: 22日16時 AZT ~ 23日16時 AZT
風向・風速南南東 4m/s
視程10km以上
全天の8割程度の雲 雲底高度 910m
22日16時 AZT ~ 22日22時 AZT に一時的に
風向・風速南 6m/s
22日22時 AZT ~ 22日24時 AZT に徐々に
風向・風速不定 2m/s
23日4時 AZT ~ 23日8時 AZT に一時的に
風向・風速北西 3m/s
視程5000m
天気現象もや
全天の4割程度の雲 雲底高度 370m
23日13時 AZT ~ 23日15時 AZT に徐々に
風向・風速南東 4m/s
TAF UBBB 221109Z 2212/2312 16008KT 9999 BKN030 TX20/2212Z TN12/2302Z
TEMPO 2212/2218 18012KT
BECMG 2218/2220 VRB04KT
TEMPO 2300/2304 32005KT 5000 BR SCT012
BECMG 2309/2311 14008KT